sensor_id;sensor_type;location;lat;lon;timestamp;P1;durP1;ratioP1;P2;durP2;ratioP2
38513;SDS011;24282;48.400;10.808;2023-12-28T00:00:27;7.53;;;5.17;;
38513;SDS011;24282;48.400;10.808;2023-12-28T00:02:53;9.40;;;5.40;;
38513;SDS011;24282;48.400;10.808;2023-12-28T00:05:19;12.47;;;5.97;;
38513;SDS011;24282;48.400;10.808;2023-12-28T00:07:44;10.00;;;5.77;;
38513;SDS011;24282;48.400;10.808;2023-12-28T00:10:10;9.00;;;5.50;;
38513;SDS011;24282;48.400;10.808;2023-12-28T00:12:36;8.33;;;5.07;;
38513;SDS011;24282;48.400;10.808;2023-12-28T00:15:02;8.97;;;5.73;;
38513;SDS011;24282;48.400;10.808;2023-12-28T00:17:28;9.40;;;6.07;;
38513;SDS011;24282;48.400;10.808;2023-12-28T00:19:53;13.07;;;6.53;;
38513;SDS011;24282;48.400;10.808;2023-12-28T00:22:19;10.17;;;5.63;;
38513;SDS011;24282;48.400;10.808;2023-12-28T00:24:45;9.73;;;6.30;;
38513;SDS011;24282;48.400;10.808;2023-12-28T00:27:11;11.30;;;5.87;;
38513;SDS011;24282;48.400;10.808;2023-12-28T00:29:36;9.97;;;5.87;;
38513;SDS011;24282;48.400;10.808;2023-12-28T00:32:06;11.13;;;5.80;;
38513;SDS011;24282;48.400;10.808;2023-12-28T00:34:32;11.37;;;6.43;;
38513;SDS011;24282;48.400;10.808;2023-12-28T00:36:58;7.73;;;4.77;;
38513;SDS011;24282;48.400;10.808;2023-12-28T00:39:24;9.63;;;4.97;;
38513;SDS011;24282;48.400;10.808;2023-12-28T00:41:50;8.87;;;5.03;;
38513;SDS011;24282;48.400;10.808;2023-12-28T00:44:15;8.07;;;5.10;;
38513;SDS011;24282;48.400;10.808;2023-12-28T00:46:41;6.87;;;4.57;;
38513;SDS011;24282;48.400;10.808;2023-12-28T00:49:07;9.47;;;5.40;;
38513;SDS011;24282;48.400;10.808;2023-12-28T00:51:33;10.43;;;5.97;;
38513;SDS011;24282;48.400;10.808;2023-12-28T00:53:59;7.73;;;5.40;;
38513;SDS011;24282;48.400;10.808;2023-12-28T00:56:25;8.47;;;6.07;;
38513;SDS011;24282;48.400;10.808;2023-12-28T00:58:50;10.77;;;6.30;;
38513;SDS011;24282;48.400;10.808;2023-12-28T01:01:17;10.23;;;5.47;;
38513;SDS011;24282;48.400;10.808;2023-12-28T01:03:43;8.47;;;5.53;;
38513;SDS011;24282;48.400;10.808;2023-12-28T01:06:09;7.80;;;5.37;;
38513;SDS011;24282;48.400;10.808;2023-12-28T01:08:34;7.97;;;5.53;;
38513;SDS011;24282;48.400;10.808;2023-12-28T01:11:00;9.80;;;5.10;;
38513;SDS011;24282;48.400;10.808;2023-12-28T01:13:27;9.60;;;5.80;;
38513;SDS011;24282;48.400;10.808;2023-12-28T01:15:53;10.13;;;6.10;;
38513;SDS011;24282;48.400;10.808;2023-12-28T01:18:19;8.57;;;5.67;;
38513;SDS011;24282;48.400;10.808;2023-12-28T01:20:45;11.37;;;6.10;;
38513;SDS011;24282;48.400;10.808;2023-12-28T01:23:11;8.60;;;5.80;;
38513;SDS011;24282;48.400;10.808;2023-12-28T01:25:37;9.60;;;5.83;;
38513;SDS011;24282;48.400;10.808;2023-12-28T01:28:03;10.03;;;5.23;;
38513;SDS011;24282;48.400;10.808;2023-12-28T01:30:29;7.63;;;4.93;;
38513;SDS011;24282;48.400;10.808;2023-12-28T01:32:55;7.57;;;4.53;;
38513;SDS011;24282;48.400;10.808;2023-12-28T01:35:21;5.40;;;3.83;;
38513;SDS011;24282;48.400;10.808;2023-12-28T01:37:47;6.93;;;3.63;;
38513;SDS011;24282;48.400;10.808;2023-12-28T01:40:12;7.40;;;4.40;;
38513;SDS011;24282;48.400;10.808;2023-12-28T01:42:40;6.57;;;4.43;;
38513;SDS011;24282;48.400;10.808;2023-12-28T01:45:05;8.67;;;3.93;;
38513;SDS011;24282;48.400;10.808;2023-12-28T01:47:31;5.67;;;3.17;;
38513;SDS011;24282;48.400;10.808;2023-12-28T01:49:57;4.23;;;2.70;;
38513;SDS011;24282;48.400;10.808;2023-12-28T01:52:24;4.77;;;3.00;;
38513;SDS011;24282;48.400;10.808;2023-12-28T01:54:50;6.63;;;3.10;;
38513;SDS011;24282;48.400;10.808;2023-12-28T01:57:16;4.57;;;2.70;;
38513;SDS011;24282;48.400;10.808;2023-12-28T01:59:42;4.97;;;3.00;;
38513;SDS011;24282;48.400;10.808;2023-12-28T02:02:09;4.20;;;2.30;;
38513;SDS011;24282;48.400;10.808;2023-12-28T02:04:35;6.43;;;2.93;;
38513;SDS011;24282;48.400;10.808;2023-12-28T02:07:01;4.70;;;3.10;;
38513;SDS011;24282;48.400;10.808;2023-12-28T02:09:28;4.17;;;2.60;;
38513;SDS011;24282;48.400;10.808;2023-12-28T02:11:53;4.27;;;2.70;;
38513;SDS011;24282;48.400;10.808;2023-12-28T02:14:20;4.00;;;2.43;;
38513;SDS011;24282;48.400;10.808;2023-12-28T02:16:49;4.03;;;2.63;;
38513;SDS011;24282;48.400;10.808;2023-12-28T02:22:18;5.03;;;3.17;;
38513;SDS011;24282;48.400;10.808;2023-12-28T02:25:06;7.10;;;4.03;;
38513;SDS011;24282;48.400;10.808;2023-12-28T02:27:38;5.90;;;3.63;;
38513;SDS011;24282;48.400;10.808;2023-12-28T02:30:05;6.87;;;4.23;;
38513;SDS011;24282;48.400;10.808;2023-12-28T02:35:42;6.07;;;3.57;;
38513;SDS011;24282;48.400;10.808;2023-12-28T02:38:16;5.88;;;3.50;;
38513;SDS011;24282;48.400;10.808;2023-12-28T02:40:43;5.43;;;3.10;;
38513;SDS011;24282;48.400;10.808;2023-12-28T02:43:10;4.27;;;2.87;;
38513;SDS011;24282;48.400;10.808;2023-12-28T02:45:37;4.93;;;2.70;;
38513;SDS011;24282;48.400;10.808;2023-12-28T02:48:04;4.80;;;2.87;;
38513;SDS011;24282;48.400;10.808;2023-12-28T02:50:31;5.07;;;3.33;;
38513;SDS011;24282;48.400;10.808;2023-12-28T02:52:57;6.60;;;4.03;;
38513;SDS011;24282;48.400;10.808;2023-12-28T02:55:23;8.97;;;5.07;;
38513;SDS011;24282;48.400;10.808;2023-12-28T02:57:50;8.43;;;5.10;;
38513;SDS011;24282;48.400;10.808;2023-12-28T03:00:20;7.23;;;5.27;;
38513;SDS011;24282;48.400;10.808;2023-12-28T03:02:46;9.03;;;5.27;;
38513;SDS011;24282;48.400;10.808;2023-12-28T03:05:12;6.60;;;4.40;;
38513;SDS011;24282;48.400;10.808;2023-12-28T03:07:38;7.67;;;4.13;;
38513;SDS011;24282;48.400;10.808;2023-12-28T03:10:05;5.50;;;3.70;;
38513;SDS011;24282;48.400;10.808;2023-12-28T03:12:32;5.97;;;3.53;;
38513;SDS011;24282;48.400;10.808;2023-12-28T03:14:58;5.20;;;3.10;;
38513;SDS011;24282;48.400;10.808;2023-12-28T03:17:24;5.93;;;3.70;;
38513;SDS011;24282;48.400;10.808;2023-12-28T03:19:49;8.73;;;4.60;;
38513;SDS011;24282;48.400;10.808;2023-12-28T03:22:16;7.23;;;4.07;;
38513;SDS011;24282;48.400;10.808;2023-12-28T03:24:42;6.67;;;3.90;;
38513;SDS011;24282;48.400;10.808;2023-12-28T03:27:08;4.97;;;3.30;;
38513;SDS011;24282;48.400;10.808;2023-12-28T03:29:34;5.93;;;3.33;;
38513;SDS011;24282;48.400;10.808;2023-12-28T03:32:00;6.33;;;3.93;;
38513;SDS011;24282;48.400;10.808;2023-12-28T03:34:26;11.20;;;4.13;;
38513;SDS011;24282;48.400;10.808;2023-12-28T03:36:54;9.30;;;3.83;;
38513;SDS011;24282;48.400;10.808;2023-12-28T03:39:20;5.10;;;3.10;;
38513;SDS011;24282;48.400;10.808;2023-12-28T03:41:49;5.33;;;2.60;;
38513;SDS011;24282;48.400;10.808;2023-12-28T03:44:15;7.13;;;2.87;;
38513;SDS011;24282;48.400;10.808;2023-12-28T03:46:40;4.30;;;2.80;;
38513;SDS011;24282;48.400;10.808;2023-12-28T03:49:06;4.33;;;2.53;;
38513;SDS011;24282;48.400;10.808;2023-12-28T03:51:32;3.13;;;2.00;;
38513;SDS011;24282;48.400;10.808;2023-12-28T03:53:58;3.50;;;2.47;;
38513;SDS011;24282;48.400;10.808;2023-12-28T03:56:25;4.17;;;2.63;;
38513;SDS011;24282;48.400;10.808;2023-12-28T03:58:54;5.23;;;2.57;;
38513;SDS011;24282;48.400;10.808;2023-12-28T04:01:21;4.77;;;2.00;;
38513;SDS011;24282;48.400;10.808;2023-12-28T04:03:48;5.07;;;2.50;;
38513;SDS011;24282;48.400;10.808;2023-12-28T04:06:15;3.23;;;2.10;;
38513;SDS011;24282;48.400;10.808;2023-12-28T04:08:41;4.73;;;2.43;;
38513;SDS011;24282;48.400;10.808;2023-12-28T04:11:08;4.13;;;2.63;;
38513;SDS011;24282;48.400;10.808;2023-12-28T04:13:34;4.07;;;2.40;;
38513;SDS011;24282;48.400;10.808;2023-12-28T04:16:00;4.00;;;2.40;;
38513;SDS011;24282;48.400;10.808;2023-12-28T04:18:26;3.27;;;2.07;;
38513;SDS011;24282;48.400;10.808;2023-12-28T04:20:52;2.87;;;1.80;;
38513;SDS011;24282;48.400;10.808;2023-12-28T04:23:17;5.07;;;2.37;;
38513;SDS011;24282;48.400;10.808;2023-12-28T04:25:43;3.60;;;2.10;;
38513;SDS011;24282;48.400;10.808;2023-12-28T04:28:09;3.03;;;2.03;;
38513;SDS011;24282;48.400;10.808;2023-12-28T04:30:36;3.03;;;2.03;;
38513;SDS011;24282;48.400;10.808;2023-12-28T04:33:03;3.33;;;2.10;;
38513;SDS011;24282;48.400;10.808;2023-12-28T04:35:29;5.03;;;2.50;;
38513;SDS011;24282;48.400;10.808;2023-12-28T04:37:56;3.67;;;2.40;;
38513;SDS011;24282;48.400;10.808;2023-12-28T04:40:22;3.50;;;2.10;;
38513;SDS011;24282;48.400;10.808;2023-12-28T04:42:47;3.57;;;2.10;;
38513;SDS011;24282;48.400;10.808;2023-12-28T04:45:13;3.73;;;2.20;;
38513;SDS011;24282;48.400;10.808;2023-12-28T04:47:39;4.50;;;2.30;;
38513;SDS011;24282;48.400;10.808;2023-12-28T04:50:05;3.40;;;2.40;;
38513;SDS011;24282;48.400;10.808;2023-12-28T04:52:32;3.77;;;2.40;;
38513;SDS011;24282;48.400;10.808;2023-12-28T04:54:57;3.60;;;2.20;;
38513;SDS011;24282;48.400;10.808;2023-12-28T04:57:23;3.20;;;2.10;;
38513;SDS011;24282;48.400;10.808;2023-12-28T04:59:50;2.87;;;2.07;;
38513;SDS011;24282;48.400;10.808;2023-12-28T05:02:17;3.27;;;1.90;;
38513;SDS011;24282;48.400;10.808;2023-12-28T05:04:46;3.27;;;2.00;;
38513;SDS011;24282;48.400;10.808;2023-12-28T05:07:12;4.03;;;2.17;;
38513;SDS011;24282;48.400;10.808;2023-12-28T05:09:37;3.53;;;2.20;;
38513;SDS011;24282;48.400;10.808;2023-12-28T05:12:03;6.30;;;2.50;;
38513;SDS011;24282;48.400;10.808;2023-12-28T05:14:29;3.27;;;2.47;;
38513;SDS011;24282;48.400;10.808;2023-12-28T05:16:55;4.87;;;3.17;;
38513;SDS011;24282;48.400;10.808;2023-12-28T05:19:21;3.97;;;2.50;;
38513;SDS011;24282;48.400;10.808;2023-12-28T05:21:46;2.93;;;1.97;;
38513;SDS011;24282;48.400;10.808;2023-12-28T05:24:12;4.47;;;2.73;;
38513;SDS011;24282;48.400;10.808;2023-12-28T05:26:38;3.90;;;2.43;;
38513;SDS011;24282;48.400;10.808;2023-12-28T05:29:04;3.53;;;2.27;;
38513;SDS011;24282;48.400;10.808;2023-12-28T05:31:30;3.70;;;2.33;;
38513;SDS011;24282;48.400;10.808;2023-12-28T05:33:55;3.53;;;1.90;;
38513;SDS011;24282;48.400;10.808;2023-12-28T05:36:23;3.03;;;1.73;;
38513;SDS011;24282;48.400;10.808;2023-12-28T05:38:51;3.00;;;2.07;;
38513;SDS011;24282;48.400;10.808;2023-12-28T05:41:17;4.40;;;2.67;;
38513;SDS011;24282;48.400;10.808;2023-12-28T05:43:43;3.17;;;2.17;;
38513;SDS011;24282;48.400;10.808;2023-12-28T05:46:08;3.70;;;2.17;;
38513;SDS011;24282;48.400;10.808;2023-12-28T05:48:34;3.27;;;2.03;;
38513;SDS011;24282;48.400;10.808;2023-12-28T05:51:00;2.97;;;1.97;;
38513;SDS011;24282;48.400;10.808;2023-12-28T05:53:26;2.97;;;2.07;;
38513;SDS011;24282;48.400;10.808;2023-12-28T05:55:53;3.10;;;1.90;;
38513;SDS011;24282;48.400;10.808;2023-12-28T05:58:18;6.60;;;1.93;;
38513;SDS011;24282;48.400;10.808;2023-12-28T06:00:44;4.00;;;2.03;;
38513;SDS011;24282;48.400;10.808;2023-12-28T06:03:13;3.20;;;2.00;;
38513;SDS011;24282;48.400;10.808;2023-12-28T06:05:39;3.80;;;2.30;;
38513;SDS011;24282;48.400;10.808;2023-12-28T06:08:05;5.50;;;2.30;;
38513;SDS011;24282;48.400;10.808;2023-12-28T06:10:30;3.40;;;2.07;;
38513;SDS011;24282;48.400;10.808;2023-12-28T06:12:56;7.40;;;2.77;;
38513;SDS011;24282;48.400;10.808;2023-12-28T06:15:22;4.63;;;2.63;;
38513;SDS011;24282;48.400;10.808;2023-12-28T06:17:47;3.77;;;2.57;;
38513;SDS011;24282;48.400;10.808;2023-12-28T06:20:13;4.30;;;2.90;;
38513;SDS011;24282;48.400;10.808;2023-12-28T06:22:39;3.77;;;2.63;;
38513;SDS011;24282;48.400;10.808;2023-12-28T06:25:05;4.33;;;2.90;;
38513;SDS011;24282;48.400;10.808;2023-12-28T06:27:31;3.83;;;2.57;;
38513;SDS011;24282;48.400;10.808;2023-12-28T06:29:57;6.23;;;3.10;;
38513;SDS011;24282;48.400;10.808;2023-12-28T06:32:22;4.33;;;2.80;;
38513;SDS011;24282;48.400;10.808;2023-12-28T06:34:48;4.70;;;2.67;;
38513;SDS011;24282;48.400;10.808;2023-12-28T06:37:14;4.17;;;2.43;;
38513;SDS011;24282;48.400;10.808;2023-12-28T06:39:40;4.07;;;2.60;;
38513;SDS011;24282;48.400;10.808;2023-12-28T06:42:06;3.40;;;2.63;;
38513;SDS011;24282;48.400;10.808;2023-12-28T06:44:32;3.53;;;2.43;;
38513;SDS011;24282;48.400;10.808;2023-12-28T06:46:57;4.03;;;2.60;;
38513;SDS011;24282;48.400;10.808;2023-12-28T06:49:23;3.43;;;2.30;;
38513;SDS011;24282;48.400;10.808;2023-12-28T06:51:50;4.17;;;2.70;;
38513;SDS011;24282;48.400;10.808;2023-12-28T06:54:16;4.23;;;2.60;;
38513;SDS011;24282;48.400;10.808;2023-12-28T06:56:42;3.83;;;2.20;;
38513;SDS011;24282;48.400;10.808;2023-12-28T06:59:08;4.47;;;2.77;;
38513;SDS011;24282;48.400;10.808;2023-12-28T07:01:40;4.80;;;2.70;;
38513;SDS011;24282;48.400;10.808;2023-12-28T07:04:06;5.17;;;3.23;;
38513;SDS011;24282;48.400;10.808;2023-12-28T07:06:33;4.50;;;2.90;;
38513;SDS011;24282;48.400;10.808;2023-12-28T07:08:58;4.03;;;2.53;;
38513;SDS011;24282;48.400;10.808;2023-12-28T07:11:24;3.53;;;1.90;;
38513;SDS011;24282;48.400;10.808;2023-12-28T07:13:51;5.00;;;2.20;;
38513;SDS011;24282;48.400;10.808;2023-12-28T07:16:18;4.00;;;2.00;;
38513;SDS011;24282;48.400;10.808;2023-12-28T07:18:44;5.37;;;2.33;;
38513;SDS011;24282;48.400;10.808;2023-12-28T07:21:09;3.93;;;2.30;;
38513;SDS011;24282;48.400;10.808;2023-12-28T07:23:35;3.10;;;1.80;;
38513;SDS011;24282;48.400;10.808;2023-12-28T07:26:01;3.80;;;2.23;;
38513;SDS011;24282;48.400;10.808;2023-12-28T07:28:27;3.53;;;2.13;;
38513;SDS011;24282;48.400;10.808;2023-12-28T07:30:53;3.93;;;2.27;;
38513;SDS011;24282;48.400;10.808;2023-12-28T07:33:19;5.00;;;2.47;;
38513;SDS011;24282;48.400;10.808;2023-12-28T07:35:45;6.27;;;2.83;;
38513;SDS011;24282;48.400;10.808;2023-12-28T07:38:11;4.03;;;2.50;;
38513;SDS011;24282;48.400;10.808;2023-12-28T07:40:37;4.63;;;2.53;;
38513;SDS011;24282;48.400;10.808;2023-12-28T07:43:02;3.73;;;2.57;;
38513;SDS011;24282;48.400;10.808;2023-12-28T07:45:28;4.50;;;2.80;;
38513;SDS011;24282;48.400;10.808;2023-12-28T07:47:54;5.00;;;2.77;;
38513;SDS011;24282;48.400;10.808;2023-12-28T07:50:20;4.43;;;2.60;;
38513;SDS011;24282;48.400;10.808;2023-12-28T07:52:46;3.90;;;2.70;;
38513;SDS011;24282;48.400;10.808;2023-12-28T07:55:12;3.97;;;2.50;;
38513;SDS011;24282;48.400;10.808;2023-12-28T07:57:39;4.00;;;2.50;;
38513;SDS011;24282;48.400;10.808;2023-12-28T08:00:05;3.93;;;2.30;;
38513;SDS011;24282;48.400;10.808;2023-12-28T08:02:31;4.73;;;2.77;;
38513;SDS011;24282;48.400;10.808;2023-12-28T08:04:57;3.63;;;2.10;;
38513;SDS011;24282;48.400;10.808;2023-12-28T08:07:23;3.90;;;2.20;;
38513;SDS011;24282;48.400;10.808;2023-12-28T08:09:49;3.87;;;2.20;;
38513;SDS011;24282;48.400;10.808;2023-12-28T08:12:14;5.40;;;2.63;;
38513;SDS011;24282;48.400;10.808;2023-12-28T08:14:40;4.30;;;2.40;;
38513;SDS011;24282;48.400;10.808;2023-12-28T08:17:06;4.83;;;3.10;;
38513;SDS011;24282;48.400;10.808;2023-12-28T08:19:32;4.60;;;3.10;;
38513;SDS011;24282;48.400;10.808;2023-12-28T08:21:57;3.73;;;2.60;;
38513;SDS011;24282;48.400;10.808;2023-12-28T08:24:23;5.10;;;3.43;;
38513;SDS011;24282;48.400;10.808;2023-12-28T08:26:48;6.40;;;3.60;;
38513;SDS011;24282;48.400;10.808;2023-12-28T08:29:14;4.70;;;3.33;;
38513;SDS011;24282;48.400;10.808;2023-12-28T08:31:40;5.03;;;3.50;;
38513;SDS011;24282;48.400;10.808;2023-12-28T08:34:06;4.73;;;3.23;;
38513;SDS011;24282;48.400;10.808;2023-12-28T08:36:31;6.13;;;3.80;;
38513;SDS011;24282;48.400;10.808;2023-12-28T08:38:57;4.83;;;3.33;;
38513;SDS011;24282;48.400;10.808;2023-12-28T08:41:23;5.47;;;3.70;;
38513;SDS011;24282;48.400;10.808;2023-12-28T08:43:49;5.87;;;4.27;;
38513;SDS011;24282;48.400;10.808;2023-12-28T08:46:15;7.60;;;4.23;;
38513;SDS011;24282;48.400;10.808;2023-12-28T08:48:41;8.20;;;4.60;;
38513;SDS011;24282;48.400;10.808;2023-12-28T08:51:09;6.07;;;3.70;;
38513;SDS011;24282;48.400;10.808;2023-12-28T08:53:35;5.93;;;4.00;;
38513;SDS011;24282;48.400;10.808;2023-12-28T08:56:01;11.90;;;4.50;;
38513;SDS011;24282;48.400;10.808;2023-12-28T08:58:27;7.77;;;4.37;;
38513;SDS011;24282;48.400;10.808;2023-12-28T09:00:53;5.50;;;4.00;;
38513;SDS011;24282;48.400;10.808;2023-12-28T09:03:18;5.10;;;3.63;;
38513;SDS011;24282;48.400;10.808;2023-12-28T09:05:44;7.33;;;4.13;;
38513;SDS011;24282;48.400;10.808;2023-12-28T09:08:10;5.00;;;4.27;;
38513;SDS011;24282;48.400;10.808;2023-12-28T09:10:35;5.43;;;3.77;;
38513;SDS011;24282;48.400;10.808;2023-12-28T09:13:03;6.30;;;3.90;;
38513;SDS011;24282;48.400;10.808;2023-12-28T09:15:30;6.53;;;3.70;;
38513;SDS011;24282;48.400;10.808;2023-12-28T09:17:56;5.10;;;3.80;;
38513;SDS011;24282;48.400;10.808;2023-12-28T09:20:21;5.43;;;3.37;;
38513;SDS011;24282;48.400;10.808;2023-12-28T09:22:47;7.40;;;3.90;;
38513;SDS011;24282;48.400;10.808;2023-12-28T09:25:18;4.93;;;3.77;;
38513;SDS011;24282;48.400;10.808;2023-12-28T09:27:44;5.07;;;3.60;;
38513;SDS011;24282;48.400;10.808;2023-12-28T09:30:10;6.23;;;3.47;;
38513;SDS011;24282;48.400;10.808;2023-12-28T09:32:36;5.50;;;3.90;;
38513;SDS011;24282;48.400;10.808;2023-12-28T09:35:01;5.57;;;3.77;;
38513;SDS011;24282;48.400;10.808;2023-12-28T09:37:27;11.00;;;5.90;;
38513;SDS011;24282;48.400;10.808;2023-12-28T09:39:53;11.67;;;6.53;;
38513;SDS011;24282;48.400;10.808;2023-12-28T09:42:25;13.10;;;6.40;;
38513;SDS011;24282;48.400;10.808;2023-12-28T09:44:54;7.97;;;4.97;;
38513;SDS011;24282;48.400;10.808;2023-12-28T09:47:19;8.37;;;5.23;;
38513;SDS011;24282;48.400;10.808;2023-12-28T09:49:45;7.30;;;4.07;;
38513;SDS011;24282;48.400;10.808;2023-12-28T09:52:12;4.77;;;2.53;;
38513;SDS011;24282;48.400;10.808;2023-12-28T09:54:38;3.90;;;2.27;;
38513;SDS011;24282;48.400;10.808;2023-12-28T09:57:04;4.10;;;2.23;;
38513;SDS011;24282;48.400;10.808;2023-12-28T09:59:30;3.50;;;1.80;;
38513;SDS011;24282;48.400;10.808;2023-12-28T10:01:57;2.03;;;1.37;;
38513;SDS011;24282;48.400;10.808;2023-12-28T10:04:25;3.20;;;1.30;;
38513;SDS011;24282;48.400;10.808;2023-12-28T10:06:54;2.43;;;1.40;;
38513;SDS011;24282;48.400;10.808;2023-12-28T10:09:20;2.47;;;1.20;;
38513;SDS011;24282;48.400;10.808;2023-12-28T10:11:46;2.40;;;1.23;;
38513;SDS011;24282;48.400;10.808;2023-12-28T10:14:13;1.90;;;1.17;;
38513;SDS011;24282;48.400;10.808;2023-12-28T10:16:42;2.33;;;1.20;;
38513;SDS011;24282;48.400;10.808;2023-12-28T10:19:08;1.80;;;1.20;;
38513;SDS011;24282;48.400;10.808;2023-12-28T10:21:34;1.93;;;1.30;;
38513;SDS011;24282;48.400;10.808;2023-12-28T10:24:00;2.73;;;1.30;;
38513;SDS011;24282;48.400;10.808;2023-12-28T10:26:27;1.53;;;1.10;;
38513;SDS011;24282;48.400;10.808;2023-12-28T10:28:57;1.63;;;0.97;;
38513;SDS011;24282;48.400;10.808;2023-12-28T10:31:25;1.67;;;1.13;;
38513;SDS011;24282;48.400;10.808;2023-12-28T10:33:51;2.83;;;1.53;;
38513;SDS011;24282;48.400;10.808;2023-12-28T10:36:17;3.03;;;1.73;;
38513;SDS011;24282;48.400;10.808;2023-12-28T10:38:45;1.83;;;1.50;;
38513;SDS011;24282;48.400;10.808;2023-12-28T10:41:12;2.70;;;1.50;;
38513;SDS011;24282;48.400;10.808;2023-12-28T10:43:45;2.80;;;1.47;;
38513;SDS011;24282;48.400;10.808;2023-12-28T10:46:14;2.30;;;1.40;;
38513;SDS011;24282;48.400;10.808;2023-12-28T10:48:56;2.00;;;1.30;;
38513;SDS011;24282;48.400;10.808;2023-12-28T10:51:43;1.70;;;1.37;;
38513;SDS011;24282;48.400;10.808;2023-12-28T10:56:45;2.20;;;1.30;;
38513;SDS011;24282;48.400;10.808;2023-12-28T11:02:01;2.50;;;1.10;;
38513;SDS011;24282;48.400;10.808;2023-12-28T11:06:59;1.30;;;1.00;;
38513;SDS011;24282;48.400;10.808;2023-12-28T11:09:27;1.93;;;1.00;;
38513;SDS011;24282;48.400;10.808;2023-12-28T11:11:57;2.70;;;1.30;;
38513;SDS011;24282;48.400;10.808;2023-12-28T11:14:28;3.00;;;1.70;;
38513;SDS011;24282;48.400;10.808;2023-12-28T11:16:55;3.20;;;1.87;;
38513;SDS011;24282;48.400;10.808;2023-12-28T11:19:23;8.67;;;4.00;;
38513;SDS011;24282;48.400;10.808;2023-12-28T11:21:49;3.17;;;1.90;;
38513;SDS011;24282;48.400;10.808;2023-12-28T11:24:16;2.43;;;1.13;;
38513;SDS011;24282;48.400;10.808;2023-12-28T11:26:42;2.00;;;1.20;;
38513;SDS011;24282;48.400;10.808;2023-12-28T11:29:08;3.03;;;1.50;;
38513;SDS011;24282;48.400;10.808;2023-12-28T11:31:35;2.47;;;1.40;;
38513;SDS011;24282;48.400;10.808;2023-12-28T11:34:01;1.70;;;1.20;;
38513;SDS011;24282;48.400;10.808;2023-12-28T11:39:04;2.20;;;1.30;;
38513;SDS011;24282;48.400;10.808;2023-12-28T11:41:32;1.80;;;1.20;;
38513;SDS011;24282;48.400;10.808;2023-12-28T11:44:04;3.53;;;1.47;;
38513;SDS011;24282;48.400;10.808;2023-12-28T11:46:31;2.30;;;1.30;;
38513;SDS011;24282;48.400;10.808;2023-12-28T11:49:07;4.30;;;2.30;;
38513;SDS011;24282;48.400;10.808;2023-12-28T11:51:34;3.53;;;1.80;;
38513;SDS011;24282;48.400;10.808;2023-12-28T11:54:02;3.97;;;1.40;;
38513;SDS011;24282;48.400;10.808;2023-12-28T11:56:29;2.87;;;1.50;;
38513;SDS011;24282;48.400;10.808;2023-12-28T11:58:55;2.40;;;1.53;;
38513;SDS011;24282;48.400;10.808;2023-12-28T12:01:21;3.33;;;1.33;;
38513;SDS011;24282;48.400;10.808;2023-12-28T12:03:47;2.03;;;1.33;;
38513;SDS011;24282;48.400;10.808;2023-12-28T12:06:14;2.60;;;1.77;;
38513;SDS011;24282;48.400;10.808;2023-12-28T12:08:40;2.80;;;1.43;;
38513;SDS011;24282;48.400;10.808;2023-12-28T12:11:06;2.13;;;1.27;;
38513;SDS011;24282;48.400;10.808;2023-12-28T12:13:32;3.27;;;1.87;;
38513;SDS011;24282;48.400;10.808;2023-12-28T12:15:58;4.83;;;2.60;;
38513;SDS011;24282;48.400;10.808;2023-12-28T12:18:25;2.70;;;1.50;;
38513;SDS011;24282;48.400;10.808;2023-12-28T12:20:51;2.50;;;1.60;;
38513;SDS011;24282;48.400;10.808;2023-12-28T12:23:17;2.90;;;1.90;;
38513;SDS011;24282;48.400;10.808;2023-12-28T12:25:42;2.23;;;1.50;;
38513;SDS011;24282;48.400;10.808;2023-12-28T12:28:10;2.27;;;1.50;;
38513;SDS011;24282;48.400;10.808;2023-12-28T12:30:36;2.53;;;1.47;;
38513;SDS011;24282;48.400;10.808;2023-12-28T12:33:02;1.80;;;1.00;;
38513;SDS011;24282;48.400;10.808;2023-12-28T12:35:28;1.67;;;1.00;;
38513;SDS011;24282;48.400;10.808;2023-12-28T12:37:54;2.50;;;1.43;;
38513;SDS011;24282;48.400;10.808;2023-12-28T12:40:20;2.23;;;1.60;;
38513;SDS011;24282;48.400;10.808;2023-12-28T12:42:55;1.90;;;1.40;;
38513;SDS011;24282;48.400;10.808;2023-12-28T12:45:21;1.83;;;1.30;;
38513;SDS011;24282;48.400;10.808;2023-12-28T12:47:47;2.83;;;1.50;;
38513;SDS011;24282;48.400;10.808;2023-12-28T12:50:14;2.50;;;1.30;;
38513;SDS011;24282;48.400;10.808;2023-12-28T12:52:41;3.13;;;1.70;;
38513;SDS011;24282;48.400;10.808;2023-12-28T12:55:11;2.53;;;1.57;;
38513;SDS011;24282;48.400;10.808;2023-12-28T12:57:38;3.83;;;1.43;;
38513;SDS011;24282;48.400;10.808;2023-12-28T13:00:05;2.80;;;1.70;;
38513;SDS011;24282;48.400;10.808;2023-12-28T13:02:34;2.10;;;1.30;;
38513;SDS011;24282;48.400;10.808;2023-12-28T13:05:03;2.87;;;1.37;;
38513;SDS011;24282;48.400;10.808;2023-12-28T13:07:33;2.80;;;1.40;;
38513;SDS011;24282;48.400;10.808;2023-12-28T13:09:59;2.20;;;1.50;;
38513;SDS011;24282;48.400;10.808;2023-12-28T13:12:25;3.03;;;1.70;;
38513;SDS011;24282;48.400;10.808;2023-12-28T13:14:51;2.63;;;1.90;;
38513;SDS011;24282;48.400;10.808;2023-12-28T13:17:16;3.10;;;1.70;;
38513;SDS011;24282;48.400;10.808;2023-12-28T13:19:42;3.53;;;1.37;;
38513;SDS011;24282;48.400;10.808;2023-12-28T13:22:08;4.00;;;1.80;;
38513;SDS011;24282;48.400;10.808;2023-12-28T13:24:34;2.57;;;1.47;;
38513;SDS011;24282;48.400;10.808;2023-12-28T13:27:00;2.17;;;1.30;;
38513;SDS011;24282;48.400;10.808;2023-12-28T13:29:26;2.77;;;1.40;;
38513;SDS011;24282;48.400;10.808;2023-12-28T13:31:51;2.30;;;1.50;;
38513;SDS011;24282;48.400;10.808;2023-12-28T13:34:17;2.33;;;1.30;;
38513;SDS011;24282;48.400;10.808;2023-12-28T13:36:48;2.87;;;1.70;;
38513;SDS011;24282;48.400;10.808;2023-12-28T13:39:13;1.90;;;1.20;;
38513;SDS011;24282;48.400;10.808;2023-12-28T13:41:40;2.60;;;1.73;;
38513;SDS011;24282;48.400;10.808;2023-12-28T13:44:06;2.60;;;1.63;;
38513;SDS011;24282;48.400;10.808;2023-12-28T13:46:35;2.00;;;1.20;;
38513;SDS011;24282;48.400;10.808;2023-12-28T13:49:01;1.50;;;1.07;;
38513;SDS011;24282;48.400;10.808;2023-12-28T13:51:29;2.13;;;1.20;;
38513;SDS011;24282;48.400;10.808;2023-12-28T13:53:58;2.70;;;1.37;;
38513;SDS011;24282;48.400;10.808;2023-12-28T13:56:24;2.33;;;1.60;;
38513;SDS011;24282;48.400;10.808;2023-12-28T13:58:50;4.30;;;1.50;;
38513;SDS011;24282;48.400;10.808;2023-12-28T14:01:15;2.23;;;1.10;;
38513;SDS011;24282;48.400;10.808;2023-12-28T14:03:41;2.50;;;1.33;;
38513;SDS011;24282;48.400;10.808;2023-12-28T14:06:07;2.00;;;1.13;;
38513;SDS011;24282;48.400;10.808;2023-12-28T14:08:34;2.00;;;1.17;;
38513;SDS011;24282;48.400;10.808;2023-12-28T14:10:59;2.17;;;1.30;;
38513;SDS011;24282;48.400;10.808;2023-12-28T14:13:25;2.73;;;1.40;;
38513;SDS011;24282;48.400;10.808;2023-12-28T14:15:51;2.70;;;1.43;;
38513;SDS011;24282;48.400;10.808;2023-12-28T14:18:16;3.23;;;1.27;;
38513;SDS011;24282;48.400;10.808;2023-12-28T14:20:42;3.27;;;1.30;;
38513;SDS011;24282;48.400;10.808;2023-12-28T14:23:08;2.17;;;1.43;;
38513;SDS011;24282;48.400;10.808;2023-12-28T14:25:34;4.17;;;2.50;;
38513;SDS011;24282;48.400;10.808;2023-12-28T14:28:00;3.33;;;2.23;;
38513;SDS011;24282;48.400;10.808;2023-12-28T14:30:26;2.43;;;1.30;;
38513;SDS011;24282;48.400;10.808;2023-12-28T14:32:52;3.50;;;1.70;;
38513;SDS011;24282;48.400;10.808;2023-12-28T14:35:19;2.93;;;1.60;;
38513;SDS011;24282;48.400;10.808;2023-12-28T14:37:45;2.53;;;1.50;;
38513;SDS011;24282;48.400;10.808;2023-12-28T14:40:11;2.37;;;1.50;;
38513;SDS011;24282;48.400;10.808;2023-12-28T14:42:37;2.20;;;1.60;;
38513;SDS011;24282;48.400;10.808;2023-12-28T14:45:03;5.17;;;2.50;;